Time;durP1;ratioP1;P1;durP2;ratioP2;P2;SDS_P1;SDS_P2;PMS_P1;PMS_P2;Temp;Humidity;BMP_temperature;BMP_pressure;BME280_temperature;BME280_humidity;BME280_pressure;Samples;Min_cycle;Max_cycle;Signal;HPM_P1;HPM_P2
2022/03/19 00:02:47;;;;;;;28.77;22.83;;;6.40;70.20;;;;;;6303087;28;20478;-64
2022/03/19 00:05:51;;;;;;;24.37;21.77;;;6.30;70.40;;;;;;6302616;28;20463;-64
2022/03/19 00:08:56;;;;;;;29.07;22.47;;;6.30;70.60;;;;;;6302157;28;20475;-64
2022/03/19 00:12:00;;;;;;;26.10;21.40;;;6.30;70.80;;;;;;6302429;28;20476;-65
2022/03/19 00:15:03;;;;;;;24.00;21.30;;;6.20;71.60;;;;;;6303192;28;20535;-65
2022/03/19 00:18:08;;;;;;;29.30;23.33;;;6.20;71.00;;;;;;6303240;28;20478;-64
2022/03/19 00:21:12;;;;;;;25.97;23.00;;;6.10;71.30;;;;;;6304682;28;20489;-64
2022/03/19 00:24:15;;;;;;;25.90;22.20;;;6.00;71.60;;;;;;6302820;28;20959;-64
2022/03/19 00:27:18;;;;;;;32.13;23.20;;;6.00;72.00;;;;;;6312899;28;20484;-64
2022/03/19 00:30:21;;;;;;;25.60;20.97;;;5.80;72.30;;;;;;6327639;28;20488;-63
2022/03/19 00:33:26;;;;;;;28.80;22.50;;;5.80;73.60;;;;;;6326676;28;20469;-64
2022/03/19 00:36:29;;;;;;;26.73;21.10;;;5.80;73.20;;;;;;6327265;28;20774;-64
2022/03/19 00:39:32;;;;;;;26.40;23.60;;;5.70;73.50;;;;;;6327727;28;20489;-65
2022/03/19 00:42:36;;;;;;;24.73;21.97;;;5.70;74.00;;;;;;6326261;28;20454;-66
2022/03/19 00:45:39;;;;;;;25.67;21.60;;;5.70;73.90;;;;;;6326770;28;20444;-65
2022/03/19 00:48:44;;;;;;;25.87;21.87;;;5.70;74.00;;;;;;6326414;28;20467;-66
2022/03/19 00:51:47;;;;;;;24.57;21.80;;;5.60;74.00;;;;;;6333333;28;20476;-65
2022/03/19 00:54:50;;;;;;;29.10;23.17;;;5.60;74.60;;;;;;6323195;28;20464;-66
2022/03/19 00:57:53;;;;;;;26.70;22.60;;;5.50;74.60;;;;;;6324012;28;20507;-65
2022/03/19 01:00:56;;;;;;;29.10;23.90;;;5.50;74.60;;;;;;6325607;28;20468;-65
2022/03/19 01:04:01;;;;;;;27.40;23.47;;;5.40;74.90;;;;;;6325822;28;20550;-66
2022/03/19 01:07:04;;;;;;;24.87;21.60;;;5.30;75.50;;;;;;6321801;28;20469;-65
2022/03/19 01:10:08;;;;;;;31.63;22.77;;;5.30;75.60;;;;;;6324786;28;20477;-65
2022/03/19 01:13:11;;;;;;;33.10;23.90;;;5.30;76.10;;;;;;6323973;28;20546;-65
2022/03/19 01:16:14;;;;;;;28.70;23.57;;;5.10;76.50;;;;;;6324521;28;20465;-65
2022/03/19 01:19:52;;;;;;;28.37;23.73;;;5.10;77.10;;;;;;6324537;28;20933;-66
2022/03/19 01:22:44;;;;;;;30.90;24.47;;;4.90;78.00;;;;;;6324644;28;20802;-65
2022/03/19 01:25:47;;;;;;;29.47;23.37;;;4.80;78.50;;;;;;6325919;28;20476;-62
2022/03/19 01:28:50;;;;;;;30.70;23.80;;;4.80;79.10;;;;;;6325997;28;20827;-62
2022/03/19 01:31:53;;;;;;;30.80;22.80;;;4.70;79.10;;;;;;6329962;28;20461;-63
2022/03/19 01:34:58;;;;;;;27.63;22.80;;;4.80;79.60;;;;;;6322524;28;20521;-63
2022/03/19 01:38:04;;;;;;;26.00;21.47;;;4.80;80.70;;;;;;6324829;28;20606;-64
2022/03/19 01:41:07;;;;;;;28.23;21.37;;;4.80;80.70;;;;;;6324659;28;20476;-64
2022/03/19 01:44:17;;;;;;;28.13;22.40;;;4.70;80.50;;;;;;6326406;28;20961;-64
2022/03/19 01:47:21;;;;;;;27.50;23.17;;;4.70;79.90;;;;;;6325610;28;20465;-65
2022/03/19 01:50:27;;;;;;;26.70;21.20;;;4.80;79.80;;;;;;6325128;28;20491;-64
2022/03/19 01:53:30;;;;;;;23.50;20.90;;;4.70;79.70;;;;;;6324762;28;20495;-64
2022/03/19 01:56:34;;;;;;;29.80;22.37;;;4.70;79.40;;;;;;6325102;28;20480;-64
2022/03/19 01:59:38;;;;;;;27.20;21.43;;;4.60;79.80;;;;;;6324999;28;20504;-64
2022/03/19 02:02:42;;;;;;;30.63;21.60;;;4.60;80.20;;;;;;6324873;28;20772;-64
2022/03/19 02:05:49;;;;;;;24.30;20.37;;;4.60;80.20;;;;;;6325123;28;20469;-64
2022/03/19 02:08:52;;;;;;;26.30;20.63;;;4.60;80.40;;;;;;6324863;28;20481;-64
2022/03/19 02:11:55;;;;;;;29.50;21.83;;;4.70;80.60;;;;;;6325110;28;20493;-64
2022/03/19 02:14:58;;;;;;;25.47;20.70;;;4.60;80.50;;;;;;6324748;28;20468;-64
2022/03/19 02:18:01;;;;;;;29.40;21.60;;;4.60;80.60;;;;;;6325112;28;20479;-64
2022/03/19 02:21:07;;;;;;;26.70;20.97;;;4.50;80.40;;;;;;6325213;28;20622;-63
2022/03/19 02:27:32;;;;;;;22.73;19.00;;;4.40;80.40;;;;;;6325426;28;20510;-63
2022/03/19 02:30:40;;;;;;;25.97;19.80;;;4.40;81.50;;;;;;6325584;28;20448;-63
2022/03/19 02:33:43;;;;;;;26.60;19.57;;;4.30;81.70;;;;;;6324574;28;20495;-63
2022/03/19 02:36:46;;;;;;;25.53;22.63;;;4.20;82.70;;;;;;6324592;28;20471;-62
2022/03/19 02:40:11;;;;;;;26.30;21.67;;;4.30;82.10;;;;;;6324717;28;20471;-62
2022/03/19 02:43:18;;;;;;;27.70;22.47;;;4.30;82.00;;;;;;6324485;28;21007;-62
2022/03/19 02:46:37;;;;;;;24.70;20.67;;;4.20;82.00;;;;;;6324597;28;20476;-62
2022/03/19 02:49:40;;;;;;;25.27;20.90;;;4.30;82.20;;;;;;6324417;28;20484;-62
2022/03/19 02:52:43;;;;;;;25.90;20.00;;;4.30;82.20;;;;;;6324118;28;20481;-62
2022/03/19 02:55:48;;;;;;;25.07;21.00;;;4.30;82.50;;;;;;6324467;28;20469;-62
2022/03/19 02:58:51;;;;;;;28.70;22.80;;;4.30;83.20;;;;;;6324333;28;20538;-62
2022/03/19 03:01:56;;;;;;;25.13;21.17;;;4.20;82.60;;;;;;6324339;28;20480;-62
2022/03/19 03:04:59;;;;;;;24.90;22.20;;;4.30;82.80;;;;;;6326021;28;20964;-62
2022/03/19 03:08:03;;;;;;;26.90;22.23;;;4.20;82.70;;;;;;6329360;28;20469;-62
2022/03/19 03:11:07;;;;;;;24.87;20.43;;;4.10;83.00;;;;;;6329211;28;20469;-62
2022/03/19 03:14:10;;;;;;;24.20;20.00;;;4.10;83.10;;;;;;6329313;28;20464;-62
2022/03/19 03:17:14;;;;;;;28.93;20.90;;;4.10;83.50;;;;;;6328615;28;20479;-63
2022/03/19 03:20:17;;;;;;;24.70;20.30;;;4.10;83.50;;;;;;6328176;28;20492;-63
2022/03/19 03:23:20;;;;;;;23.03;20.40;;;4.10;83.50;;;;;;6329261;28;20472;-63
2022/03/19 03:26:24;;;;;;;27.57;21.67;;;4.00;83.50;;;;;;6329645;28;20861;-62
2022/03/19 03:29:28;;;;;;;21.37;18.80;;;4.00;83.70;;;;;;6328462;28;20479;-63
2022/03/19 03:32:31;;;;;;;26.80;21.93;;;4.00;83.40;;;;;;6328674;28;20476;-63
2022/03/19 03:35:34;;;;;;;25.80;20.53;;;4.00;83.50;;;;;;6328639;28;20479;-62
2022/03/19 03:38:37;;;;;;;29.33;22.03;;;4.00;83.70;;;;;;6328443;28;20609;-62
2022/03/19 03:41:42;;;;;;;21.33;18.73;;;3.90;83.70;;;;;;6328029;28;20862;-64
2022/03/19 03:44:45;;;;;;;25.00;21.20;;;3.90;84.10;;;;;;6328296;28;20976;-63
2022/03/19 03:47:48;;;;;;;27.17;19.30;;;3.90;84.90;;;;;;6328456;28;20468;-62
2022/03/19 03:50:54;;;;;;;26.83;20.50;;;3.90;84.20;;;;;;6329861;28;20461;-62
2022/03/19 03:53:58;;;;;;;24.97;18.73;;;3.90;84.60;;;;;;6352955;28;20464;-62
2022/03/19 03:57:02;;;;;;;25.73;20.47;;;3.90;84.60;;;;;;6353427;28;20467;-62
2022/03/19 04:00:09;;;;;;;26.53;20.50;;;3.90;84.90;;;;;;6355162;28;20476;-62
2022/03/19 04:03:12;;;;;;;26.07;20.50;;;3.90;84.80;;;;;;6354469;28;20494;-62
2022/03/19 04:06:15;;;;;;;22.90;20.10;;;3.80;84.60;;;;;;6353091;28;20468;-62
2022/03/19 04:09:19;;;;;;;26.33;21.40;;;3.90;84.90;;;;;;6347710;28;20884;-62
2022/03/19 04:12:23;;;;;;;26.90;19.77;;;3.80;84.90;;;;;;6352623;28;20483;-62
2022/03/19 04:15:27;;;;;;;27.93;19.70;;;3.80;85.20;;;;;;6352241;27;20471;-62
2022/03/19 04:18:30;;;;;;;29.47;20.43;;;3.90;85.20;;;;;;6352205;28;20491;-63
2022/03/19 04:21:33;;;;;;;26.60;20.27;;;3.90;84.80;;;;;;6351992;28;20928;-62
2022/03/19 04:24:37;;;;;;;26.30;20.20;;;3.80;84.60;;;;;;6352345;28;20436;-62
2022/03/19 04:27:43;;;;;;;23.30;19.47;;;3.80;84.50;;;;;;6340359;28;20761;-62
2022/03/19 04:30:46;;;;;;;28.03;21.03;;;3.80;84.60;;;;;;6327440;28;20425;-62
2022/03/19 04:33:49;;;;;;;26.20;21.57;;;3.70;84.70;;;;;;6327155;28;20440;-62
2022/03/19 04:36:53;;;;;;;25.57;20.63;;;3.70;85.00;;;;;;6327049;28;20521;-62
2022/03/19 04:39:56;;;;;;;25.70;19.67;;;3.60;85.20;;;;;;6326618;28;20961;-62
2022/03/19 04:43:00;;;;;;;26.10;21.00;;;3.60;85.50;;;;;;6327535;28;20499;-62
2022/03/19 04:46:03;;;;;;;26.97;20.17;;;3.60;85.90;;;;;;6326625;28;20469;-62
2022/03/19 04:49:07;;;;;;;27.10;21.80;;;3.60;86.30;;;;;;6326421;28;20526;-63
2022/03/19 04:52:10;;;;;;;27.20;22.87;;;3.60;86.30;;;;;;6326341;28;20465;-64
2022/03/19 04:55:14;;;;;;;26.00;20.60;;;3.60;86.90;;;;;;6326571;28;20461;-64
2022/03/19 04:58:18;;;;;;;25.50;20.33;;;3.50;87.10;;;;;;6326410;28;20526;-64
2022/03/19 05:01:22;;;;;;;26.83;20.93;;;3.60;86.90;;;;;;6326218;28;20480;-63
2022/03/19 05:04:25;;;;;;;27.63;21.30;;;3.60;86.80;;;;;;6327114;28;20466;-64
2022/03/19 05:07:29;;;;;;;24.57;20.90;;;3.60;86.60;;;;;;6326217;28;20526;-64
2022/03/19 05:13:54;;;;;;;23.73;20.20;;;3.60;86.70;;;;;;6325889;28;20476;-63
2022/03/19 05:16:57;;;;;;;27.70;21.53;;;3.60;86.50;;;;;;6326219;28;20538;-64
2022/03/19 05:20:00;;;;;;;26.37;22.17;;;3.60;87.40;;;;;;6325608;28;20545;-64
2022/03/19 05:23:05;;;;;;;31.17;22.47;;;3.70;87.10;;;;;;6325567;28;20510;-64
2022/03/19 05:26:08;;;;;;;31.50;22.00;;;3.80;86.20;;;;;;6325794;28;20483;-64
2022/03/19 05:29:12;;;;;;;27.13;21.97;;;3.80;85.90;;;;;;6324644;28;20485;-64
2022/03/19 05:32:21;;;;;;;28.67;22.17;;;3.80;85.90;;;;;;6325686;28;20774;-64
2022/03/19 05:35:26;;;;;;;27.30;21.10;;;3.90;85.90;;;;;;6325261;28;20969;-63
2022/03/19 05:38:30;;;;;;;27.07;20.47;;;3.90;85.90;;;;;;6325467;28;20477;-64
2022/03/19 05:41:33;;;;;;;31.70;22.43;;;3.90;86.00;;;;;;6325698;28;20484;-64
2022/03/19 05:44:39;;;;;;;32.00;21.87;;;4.00;85.80;;;;;;6325744;28;20473;-63
2022/03/19 05:47:43;;;;;;;29.87;22.53;;;4.10;85.60;;;;;;6326325;28;20572;-64
2022/03/19 05:50:46;;;;;;;23.90;19.90;;;4.20;85.30;;;;;;6326875;28;20480;-63
2022/03/19 05:53:50;;;;;;;25.20;19.83;;;4.30;84.70;;;;;;6350410;28;20468;-63
2022/03/19 05:56:53;;;;;;;29.27;21.67;;;4.30;84.60;;;;;;6351206;28;20471;-63
2022/03/19 05:59:58;;;;;;;26.20;22.20;;;4.40;84.00;;;;;;6350848;28;20487;-63
2022/03/19 06:03:01;;;;;;;24.87;19.80;;;4.50;83.80;;;;;;6350008;27;20464;-62
2022/03/19 06:06:04;;;;;;;25.23;22.53;;;4.50;83.10;;;;;;6350566;28;20478;-64
2022/03/19 06:09:07;;;;;;;24.83;20.20;;;4.60;82.90;;;;;;6349871;28;20991;-64
2022/03/19 06:12:11;;;;;;;26.93;22.07;;;4.60;82.60;;;;;;6350242;28;20542;-64
2022/03/19 06:15:15;;;;;;;29.87;21.00;;;4.60;83.60;;;;;;6349889;28;20467;-64
2022/03/19 06:18:18;;;;;;;28.07;20.70;;;4.80;83.10;;;;;;6349782;28;20475;-64
2022/03/19 06:21:23;;;;;;;27.13;22.30;;;4.90;82.30;;;;;;6349477;28;20809;-64
2022/03/19 06:24:26;;;;;;;23.80;19.17;;;4.90;80.90;;;;;;6349973;28;20482;-64
2022/03/19 06:27:30;;;;;;;32.07;24.33;;;5.00;81.60;;;;;;6339786;28;20476;-64
2022/03/19 06:30:37;;;;;;;25.57;21.27;;;5.20;81.20;;;;;;6324266;28;20469;-64
2022/03/19 06:33:41;;;;;;;31.13;21.60;;;5.40;81.10;;;;;;6324704;28;20441;-64
2022/03/19 06:40:08;;;;;;;27.67;21.50;;;5.70;79.30;;;;;;6326201;28;20485;-65
2022/03/19 06:43:11;;;;;;;25.70;22.13;;;5.80;78.70;;;;;;6328913;28;20974;-64
2022/03/19 06:46:15;;;;;;;26.67;21.77;;;6.00;77.90;;;;;;6329602;28;20834;-64
2022/03/19 06:49:18;;;;;;;24.57;22.07;;;6.00;76.80;;;;;;6327860;28;20806;-64
2022/03/19 06:52:24;;;;;;;27.23;23.37;;;6.00;76.60;;;;;;6344066;28;20534;-64
2022/03/19 06:55:27;;;;;;;24.43;21.50;;;6.20;76.60;;;;;;6328130;28;20806;-64
2022/03/19 06:58:31;;;;;;;27.07;21.03;;;6.30;76.30;;;;;;6327136;28;20525;-64
2022/03/19 07:01:36;;;;;;;24.17;20.97;;;6.50;75.60;;;;;;6328252;28;20485;-64
2022/03/19 07:04:40;;;;;;;28.20;22.10;;;6.60;75.00;;;;;;6327360;28;20473;-64
2022/03/19 07:07:43;;;;;;;28.07;24.30;;;6.80;73.90;;;;;;6327380;28;20487;-64
2022/03/19 07:10:46;;;;;;;29.67;23.83;;;6.90;73.50;;;;;;6328106;28;20463;-64
2022/03/19 07:13:49;;;;;;;29.00;24.30;;;7.00;72.60;;;;;;6326735;28;20486;-64
2022/03/19 07:16:55;;;;;;;26.67;21.50;;;7.10;72.60;;;;;;6326925;28;20478;-64
2022/03/19 07:19:59;;;;;;;30.03;23.03;;;7.20;72.50;;;;;;6328922;28;20474;-64
2022/03/19 07:23:04;;;;;;;28.10;23.43;;;7.30;72.30;;;;;;6328909;28;20489;-63
2022/03/19 07:26:07;;;;;;;28.37;23.63;;;7.30;72.10;;;;;;6328420;28;20467;-63
2022/03/19 07:29:10;;;;;;;25.57;22.43;;;7.40;72.10;;;;;;6328116;28;20494;-64
2022/03/19 07:32:14;;;;;;;27.83;23.20;;;7.80;71.70;;;;;;6329463;28;20792;-64
2022/03/19 07:35:18;;;;;;;26.60;23.70;;;8.20;69.80;;;;;;6329207;28;20523;-64
2022/03/19 07:38:21;;;;;;;27.37;24.47;;;8.30;68.90;;;;;;6328227;28;20968;-64
2022/03/19 07:44:45;;;;;;;28.83;25.07;;;8.60;67.90;;;;;;6328959;28;21013;-66
2022/03/19 07:47:49;;;;;;;25.97;22.70;;;8.80;66.70;;;;;;6328251;28;20478;-64
2022/03/19 07:50:52;;;;;;;25.80;23.10;;;9.00;65.80;;;;;;6327611;28;20565;-64
2022/03/19 07:53:55;;;;;;;25.80;22.80;;;9.10;64.90;;;;;;6328647;28;20799;-64
2022/03/19 07:56:59;;;;;;;27.77;24.07;;;9.20;64.40;;;;;;6327945;28;21018;-65
2022/03/19 08:00:02;;;;;;;26.83;23.97;;;9.30;63.60;;;;;;6327469;28;20818;-64
2022/03/19 08:03:06;;;;;;;29.83;24.40;;;9.40;63.50;;;;;;6328410;28;20855;-64
2022/03/19 08:06:10;;;;;;;30.80;24.60;;;10.60;60.80;;;;;;6328215;28;20464;-64
2022/03/19 08:09:14;;;;;;;27.10;23.63;;;11.00;56.90;;;;;;6327879;28;20471;-65
2022/03/19 08:12:17;;;;;;;25.60;22.57;;;11.10;56.30;;;;;;6328024;28;20789;-65
2022/03/19 08:15:21;;;;;;;25.53;22.90;;;12.90;53.50;;;;;;6327741;28;20476;-65
2022/03/19 08:18:26;;;;;;;28.53;24.87;;;13.50;50.10;;;;;;6328376;28;20821;-64
2022/03/19 08:21:30;;;;;;;27.07;24.37;;;13.30;48.80;;;;;;6327569;28;20473;-63
2022/03/19 08:24:33;;;;;;;30.50;25.27;;;13.20;48.90;;;;;;6328584;28;20897;-63
2022/03/19 08:27:36;;;;;;;26.90;24.00;;;13.10;48.60;;;;;;6328247;28;20437;-64
2022/03/19 08:30:40;;;;;;;25.57;23.00;;;13.00;48.30;;;;;;6327669;28;20468;-63
2022/03/19 08:33:44;;;;;;;24.97;22.67;;;12.60;48.50;;;;;;6327776;28;20435;-63
2022/03/19 08:36:48;;;;;;;26.47;23.67;;;12.40;49.30;;;;;;6327131;28;20448;-63
2022/03/19 08:43:11;;;;;;;28.33;24.50;;;12.00;49.60;;;;;;6326523;28;20472;-64
2022/03/19 08:46:14;;;;;;;26.17;23.50;;;11.70;49.80;;;;;;6326735;28;20472;-64
2022/03/19 08:49:19;;;;;;;30.50;24.50;;;11.50;50.30;;;;;;6326157;28;20484;-63
2022/03/19 08:52:26;;;;;;;28.10;25.00;;;11.40;50.50;;;;;;6341919;28;20975;-63
2022/03/19 08:55:29;;;;;;;25.63;22.93;;;11.20;50.80;;;;;;6351462;28;20481;-64
2022/03/19 08:58:32;;;;;;;26.97;24.23;;;11.10;51.00;;;;;;6351784;28;20477;-63
2022/03/19 09:01:35;;;;;;;30.03;24.37;;;10.90;51.20;;;;;;6350587;28;20492;-63
2022/03/19 09:04:40;;;;;;;28.30;25.30;;;10.80;51.50;;;;;;6351173;28;20486;-64
2022/03/19 09:07:43;;;;;;;30.57;25.27;;;10.80;51.60;;;;;;6345478;28;20474;-63
2022/03/19 09:10:46;;;;;;;27.87;24.97;;;10.80;51.70;;;;;;6325695;28;20494;-63
2022/03/19 09:13:50;;;;;;;27.97;24.23;;;10.90;51.60;;;;;;6322643;28;20960;-63
2022/03/19 09:16:54;;;;;;;30.53;24.80;;;10.90;51.60;;;;;;6325619;28;20464;-63
2022/03/19 09:19:58;;;;;;;30.50;26.53;;;10.90;52.30;;;;;;6325425;28;20479;-63
2022/03/19 09:23:03;;;;;;;32.83;27.00;;;10.90;52.50;;;;;;6325963;28;20480;-63
2022/03/19 09:26:06;;;;;;;31.23;26.83;;;10.90;52.90;;;;;;6325332;28;20482;-63
2022/03/19 09:29:09;;;;;;;29.57;26.47;;;10.90;53.30;;;;;;6323420;28;20968;-63
2022/03/19 09:32:12;;;;;;;30.10;26.60;;;11.00;53.40;;;;;;6325392;28;20459;-65
2022/03/19 09:35:17;;;;;;;31.57;26.50;;;10.90;53.10;;;;;;6325560;28;20550;-64
2022/03/19 09:38:20;;;;;;;29.47;26.27;;;10.70;53.90;;;;;;6325411;28;20573;-66
2022/03/19 09:41:24;;;;;;;29.40;26.00;;;10.80;54.00;;;;;;6325164;28;20517;-65
2022/03/19 09:44:27;;;;;;;31.60;28.23;;;10.90;53.90;;;;;;6326412;28;20477;-67
2022/03/19 09:47:30;;;;;;;31.07;27.70;;;10.90;54.20;;;;;;6325664;28;20473;-65
2022/03/19 09:50:35;;;;;;;30.50;26.80;;;11.00;54.30;;;;;;6325278;28;20486;-65
2022/03/19 09:53:41;;;;;;;32.47;29.03;;;11.00;54.50;;;;;;6325149;28;20804;-65
2022/03/19 09:57:03;;;;;;;30.43;25.67;;;11.00;54.70;;;;;;6325680;28;20472;-65
2022/03/19 10:00:08;;;;;;;32.60;28.57;;;11.00;55.00;;;;;;6324933;28;20491;-63
2022/03/19 10:03:13;;;;;;;32.00;28.40;;;10.90;55.20;;;;;;6325160;28;20475;-66
2022/03/19 10:09:43;;;;;;;31.37;26.73;;;11.10;55.30;;;;;;6325851;28;20753;-64
2022/03/19 10:12:46;;;;;;;33.03;26.67;;;11.10;54.80;;;;;;6313902;28;20461;-65
2022/03/19 10:15:49;;;;;;;28.37;25.37;;;11.20;55.00;;;;;;6325614;28;20494;-64
2022/03/19 10:18:56;;;;;;;31.17;27.67;;;11.40;55.20;;;;;;6325171;28;20471;-63
2022/03/19 10:22:08;;;;;;;30.60;26.93;;;11.70;54.40;;;;;;6301038;28;20479;-63
2022/03/19 10:25:12;;;;;;;31.70;28.20;;;11.80;53.80;;;;;;6299279;28;20568;-64
2022/03/19 10:28:15;;;;;;;29.90;26.73;;;11.90;53.80;;;;;;6306752;28;20482;-65
2022/03/19 10:31:30;;;;;;;27.90;25.10;;;12.20;53.60;;;;;;6325220;28;20468;-64
2022/03/19 10:34:35;;;;;;;26.90;24.37;;;12.30;53.00;;;;;;6323699;28;20472;-65
2022/03/19 10:37:41;;;;;;;28.23;25.30;;;12.40;52.70;;;;;;6324773;28;20474;-65
2022/03/19 10:40:47;;;;;;;26.40;23.53;;;12.50;52.20;;;;;;6300421;28;20801;-66
2022/03/19 10:43:50;;;;;;;29.00;25.77;;;12.40;52.70;;;;;;6299836;28;20477;-64
2022/03/19 10:46:55;;;;;;;27.13;23.50;;;12.20;51.40;;;;;;6317742;28;21034;-66
2022/03/19 10:50:00;;;;;;;26.67;23.67;;;12.30;50.50;;;;;;6324751;28;21048;-65
2022/03/19 10:53:06;;;;;;;27.97;25.17;;;12.10;50.20;;;;;;6326292;28;20464;-65
2022/03/19 10:56:11;;;;;;;26.50;23.63;;;12.10;50.40;;;;;;6325168;28;20476;-65
2022/03/19 10:59:34;;;;;;;25.70;22.90;;;12.20;49.50;;;;;;6325444;28;20559;-65
2022/03/19 11:02:43;;;;;;;25.17;22.57;;;12.10;49.30;;;;;;6320379;28;20480;-65
2022/03/19 11:05:49;;;;;;;27.17;24.47;;;12.30;49.40;;;;;;6302457;28;20468;-64
2022/03/19 11:08:55;;;;;;;24.77;21.77;;;12.40;48.00;;;;;;6310740;28;20480;-65
2022/03/19 11:11:59;;;;;;;24.63;22.00;;;12.50;47.80;;;;;;6325562;28;20483;-64
2022/03/19 11:15:05;;;;;;;23.80;21.33;;;12.40;46.80;;;;;;6317877;28;20793;-65
2022/03/19 11:18:09;;;;;;;25.60;22.60;;;12.40;47.40;;;;;;6299610;28;20484;-64
2022/03/19 11:21:14;;;;;;;23.03;20.60;;;12.00;47.20;;;;;;6312568;28;20480;-64
2022/03/19 11:24:26;;;;;;;24.50;21.80;;;12.10;47.70;;;;;;6317262;28;20956;-65
2022/03/19 11:27:32;;;;;;;24.50;21.60;;;12.30;47.10;;;;;;6315248;28;20531;-64
2022/03/19 11:30:37;;;;;;;26.03;23.40;;;12.60;46.90;;;;;;6321811;28;20783;-67
2022/03/19 11:33:41;;;;;;;27.30;23.03;;;13.00;46.00;;;;;;6304803;28;20868;-65
2022/03/19 11:36:57;;;;;;;23.40;21.00;;;13.60;45.20;;;;;;6322260;28;20448;-65
2022/03/19 11:40:29;;;;;;;23.00;20.67;;;14.30;43.90;;;;;;6307404;28;20484;-66
2022/03/19 11:43:48;;;;;;;24.87;22.37;;;14.90;42.70;;;;;;6321304;28;20472;-65
2022/03/19 11:46:59;;;;;;;21.93;19.90;;;15.80;41.60;;;;;;6328511;28;20469;-67
2022/03/19 11:50:03;;;;;;;26.43;23.73;;;17.70;38.60;;;;;;6328676;28;20473;-65
2022/03/19 11:53:09;;;;;;;23.13;21.00;;;18.70;36.30;;;;;;6329247;28;20465;-65
2022/03/19 11:56:19;;;;;;;24.70;22.37;;;19.70;33.80;;;;;;6328358;28;20230;-65
2022/03/19 11:59:36;;;;;;;24.73;22.30;;;19.90;32.60;;;;;;6327932;28;20541;-65
2022/03/19 12:03:04;;;;;;;24.30;21.97;;;20.40;31.60;;;;;;6328162;28;20256;-65
2022/03/19 12:06:29;;;;;;;24.90;22.60;;;21.50;30.40;;;;;;6328357;28;20311;-65
2022/03/19 12:09:34;;;;;;;24.97;22.67;;;21.70;28.30;;;;;;6328926;28;20622;-66
2022/03/19 12:12:40;;;;;;;24.93;22.33;;;20.10;29.20;;;;;;6329020;28;20222;-66
2022/03/19 12:15:49;;;;;;;28.97;24.63;;;19.80;29.60;;;;;;6328834;28;20600;-65
2022/03/19 12:18:55;;;;;;;24.37;22.03;;;19.20;29.70;;;;;;6328119;28;20233;-65
2022/03/19 12:22:01;;;;;;;28.00;25.20;;;18.90;29.90;;;;;;6326576;28;20650;-65
2022/03/19 12:25:11;;;;;;;22.83;20.67;;;18.40;30.00;;;;;;6316349;28;20237;-65
2022/03/19 12:28:18;;;;;;;24.17;21.87;;;18.00;30.40;;;;;;6322317;28;20246;-65
2022/03/19 12:31:21;;;;;;;25.30;22.67;;;17.60;30.20;;;;;;6327002;28;20234;-64
2022/03/19 12:34:26;;;;;;;24.33;21.80;;;17.30;30.80;;;;;;6327228;28;20475;-66
2022/03/19 12:37:30;;;;;;;24.43;22.13;;;16.40;30.90;;;;;;6326633;28;20477;-65
2022/03/19 12:43:52;;;;;;;24.53;21.97;;;15.40;34.40;;;;;;6319484;28;20996;-65
2022/03/19 12:46:58;;;;;;;24.37;22.00;;;15.30;34.20;;;;;;6329118;28;20471;-65
2022/03/19 12:50:01;;;;;;;25.47;22.00;;;15.30;34.30;;;;;;6327025;28;20610;-65
2022/03/19 12:53:05;;;;;;;23.03;20.50;;;15.30;34.20;;;;;;6327942;28;20591;-64
2022/03/19 12:56:12;;;;;;;22.87;20.57;;;15.10;34.50;;;;;;6327467;28;20791;-65
2022/03/19 12:59:21;;;;;;;25.57;22.90;;;14.60;34.70;;;;;;6326946;28;20545;-63
2022/03/19 13:02:26;;;;;;;24.20;21.80;;;13.80;35.70;;;;;;6326988;28;20476;-63
2022/03/19 13:05:29;;;;;;;23.07;20.87;;;13.70;36.80;;;;;;6326551;28;20475;-65
2022/03/19 13:08:47;;;;;;;25.43;21.57;;;14.10;37.60;;;;;;6326783;28;20811;-64
2022/03/19 13:11:50;;;;;;;24.17;21.77;;;15.50;35.70;;;;;;6321756;28;20480;-65
2022/03/19 13:14:56;;;;;;;26.93;22.90;;;16.50;34.20;;;;;;6326191;28;20468;-66
2022/03/19 13:17:59;;;;;;;24.63;22.27;;;16.30;33.00;;;;;;6325417;28;20491;-65
2022/03/19 13:21:05;;;;;;;24.37;22.07;;;15.50;34.00;;;;;;6326016;28;20496;-67
2022/03/19 13:24:11;;;;;;;23.80;21.30;;;15.20;34.60;;;;;;6326402;28;20492;-65
2022/03/19 13:27:15;;;;;;;24.37;21.87;;;15.10;35.20;;;;;;6325375;28;20469;-66
2022/03/19 13:30:19;;;;;;;25.63;22.87;;;14.50;36.20;;;;;;6325378;28;20469;-66
2022/03/19 13:33:28;;;;;;;26.20;23.50;;;14.20;37.00;;;;;;6325530;28;20487;-66
2022/03/19 13:36:34;;;;;;;30.33;23.60;;;13.80;37.70;;;;;;6326251;28;20977;-64
2022/03/19 13:39:39;;;;;;;25.57;22.70;;;13.40;38.00;;;;;;6328212;28;20937;-65
2022/03/19 13:42:44;;;;;;;25.77;23.17;;;13.10;38.70;;;;;;6326399;28;20441;-65
2022/03/19 13:45:59;;;;;;;26.00;23.40;;;12.80;39.10;;;;;;6326190;28;20973;-65
2022/03/19 13:49:16;;;;;;;25.87;23.10;;;12.50;40.20;;;;;;6313676;28;20924;-64
2022/03/19 13:52:40;;;;;;;28.80;23.33;;;12.30;40.70;;;;;;6316472;28;20972;-65
2022/03/19 13:55:43;;;;;;;27.53;23.40;;;12.10;41.60;;;;;;6306380;28;20461;-64
2022/03/19 13:59:00;;;;;;;25.40;22.90;;;11.80;42.00;;;;;;6326550;28;20568;-64
2022/03/19 14:02:05;;;;;;;27.27;24.43;;;11.90;42.30;;;;;;6326096;28;20472;-64
2022/03/19 14:05:11;;;;;;;27.00;24.10;;;12.00;42.30;;;;;;6314941;28;20539;-64
2022/03/19 14:08:16;;;;;;;25.33;22.73;;;12.00;42.40;;;;;;6301481;28;20566;-65
2022/03/19 14:11:19;;;;;;;25.00;22.40;;;12.00;42.50;;;;;;6301729;28;20476;-65
2022/03/19 14:14:23;;;;;;;24.23;21.83;;;12.10;42.70;;;;;;6300736;28;20477;-63
2022/03/19 14:17:49;;;;;;;24.83;21.90;;;12.00;42.70;;;;;;6300157;28;20483;-65
2022/03/19 14:20:52;;;;;;;25.20;22.53;;;12.20;42.30;;;;;;6316215;28;20487;-62
2022/03/19 14:23:56;;;;;;;24.47;22.10;;;12.50;41.70;;;;;;6300874;28;20469;-62
2022/03/19 14:26:59;;;;;;;25.67;22.90;;;12.80;41.40;;;;;;6300180;28;20481;-63
2022/03/19 14:30:03;;;;;;;25.53;22.80;;;13.10;40.80;;;;;;6326434;28;20509;-64
2022/03/19 14:33:08;;;;;;;24.80;22.10;;;13.40;40.10;;;;;;6326043;28;20483;-64
2022/03/19 14:36:13;;;;;;;23.13;20.77;;;13.20;39.50;;;;;;6324907;28;20506;-63
2022/03/19 14:39:16;;;;;;;30.87;23.00;;;13.30;39.60;;;;;;6323587;28;20559;-63
2022/03/19 14:42:19;;;;;;;26.00;23.43;;;13.30;39.60;;;;;;6323424;28;20476;-63
2022/03/19 14:45:23;;;;;;;25.57;22.87;;;13.10;39.40;;;;;;6324470;28;20796;-63
2022/03/19 14:48:28;;;;;;;31.23;27.83;;;13.00;39.60;;;;;;6320542;28;20839;-62
2022/03/19 14:51:31;;;;;;;28.27;25.10;;;12.80;39.60;;;;;;6322772;28;20472;-63
2022/03/19 14:54:34;;;;;;;26.20;22.90;;;12.60;40.10;;;;;;6323447;28;20452;-63
2022/03/19 14:57:38;;;;;;;24.50;21.90;;;12.50;40.60;;;;;;6324434;28;20501;-63
2022/03/19 15:00:41;;;;;;;23.33;21.03;;;12.20;40.90;;;;;;6326031;28;20567;-62
2022/03/19 15:03:46;;;;;;;25.67;22.30;;;12.00;41.80;;;;;;6329587;28;20456;-63
2022/03/19 15:06:49;;;;;;;27.83;22.40;;;11.90;42.20;;;;;;6328829;28;20487;-63
2022/03/19 15:09:53;;;;;;;24.90;21.20;;;11.80;42.20;;;;;;6330125;28;20492;-64
2022/03/19 15:12:56;;;;;;;26.70;23.53;;;11.70;42.20;;;;;;6325610;28;20459;-63
2022/03/19 15:15:59;;;;;;;28.83;24.53;;;11.60;42.70;;;;;;6309087;28;20463;-63
2022/03/19 15:19:06;;;;;;;26.57;23.70;;;11.50;43.00;;;;;;6308191;28;20476;-63
2022/03/19 15:22:09;;;;;;;27.73;24.53;;;11.20;43.80;;;;;;6328443;28;20463;-62
2022/03/19 15:25:23;;;;;;;24.90;22.20;;;11.10;44.70;;;;;;6329339;28;20476;-62
2022/03/19 15:28:27;;;;;;;28.47;23.23;;;11.00;45.40;;;;;;6328509;28;20864;-62
2022/03/19 15:31:30;;;;;;;26.23;23.27;;;10.80;46.00;;;;;;6324952;28;20483;-62
2022/03/19 15:34:35;;;;;;;26.37;22.70;;;10.50;46.60;;;;;;6327237;28;20948;-61
2022/03/19 15:37:39;;;;;;;27.53;23.03;;;10.40;47.10;;;;;;6327040;28;20838;-62
2022/03/19 15:40:42;;;;;;;27.03;23.73;;;10.20;47.50;;;;;;6326753;28;20493;-62
2022/03/19 15:43:45;;;;;;;31.33;23.40;;;10.30;47.70;;;;;;6326777;28;20495;-63
2022/03/19 15:46:48;;;;;;;26.20;23.37;;;10.30;47.80;;;;;;6326526;28;20468;-62
2022/03/19 15:49:57;;;;;;;28.13;23.60;;;10.20;48.10;;;;;;6328275;28;20913;-63
2022/03/19 15:53:00;;;;;;;26.43;23.47;;;10.20;48.40;;;;;;6328646;28;20474;-63
2022/03/19 15:56:04;;;;;;;25.23;21.30;;;10.10;48.60;;;;;;6327768;28;20460;-63
2022/03/19 15:59:07;;;;;;;25.70;23.00;;;10.10;48.60;;;;;;6327530;28;20539;-63
2022/03/19 16:02:10;;;;;;;26.70;23.90;;;10.20;48.80;;;;;;6327902;28;20529;-63
2022/03/19 16:05:15;;;;;;;26.23;23.50;;;10.20;48.80;;;;;;6327607;28;20646;-63
2022/03/19 16:08:18;;;;;;;25.23;22.63;;;10.20;49.00;;;;;;6326940;28;20472;-62